WetterOnline ( https://www.wetteronline.de )

Wetter aktuell Emden

Aktuelles Wetter: Emden (5m)

6-stündlich | Neueste Meldungen
Ortszeit Temperatur Wetter
Mo, 23.09. 20:00 16.1° C wolkig
Mo, 23.09. 14:00 17.2° C Regen
Mo, 23.09. 8:00 15.5° C leichter Regen
Mo, 23.09. 2:00 17.7° C bedeckt
So, 22.09. 20:00 19.0° C leicht bewölkt
So, 22.09. 14:00 22.8° C leicht bewölkt
So, 22.09. 8:00 8.2° C wolkenlos
So, 22.09. 2:00 10.1° C wolkenlos
Ortszeit Temperatur Wetter
Mo, 23.09. 20:00 16.1° C wolkig
Mo, 23.09. 19:50 16.1° C wolkig
Mo, 23.09. 19:40 16.2° C wolkig
Mo, 23.09. 19:30 16.7° C wolkig
Mo, 23.09. 19:20 16.7° C wolkig
Mo, 23.09. 19:10 16.7° C wolkig
Mo, 23.09. 19:00 16.9° C bewölkt
Mo, 23.09. 18:30 17.0° C bedeckt
Mo, 23.09. 18:00 17.3° C bedeckt
Mo, 23.09. 17:30 17.5° C wolkig
Mo, 23.09. 17:00 17.5° C wolkig
Ortszeit Relative Feuchte Sichtweite
Mo, 23.09. 20:00 94% 10 km
Mo, 23.09. 14:00 90% 10 km
Mo, 23.09. 8:00 97% 13 km
Mo, 23.09. 2:00 65% >70 km
So, 22.09. 20:00 63% 45 km
So, 22.09. 14:00 47% 55 km
So, 22.09. 8:00 88% 45 km
So, 22.09. 2:00 82% 50 km
Ortszeit Relative Feuchte Sichtweite
Mo, 23.09. 20:00 94% 10 km
Mo, 23.09. 19:50 94% -
Mo, 23.09. 19:40 94% -
Mo, 23.09. 19:30 92% -
Mo, 23.09. 19:20 92% -
Mo, 23.09. 19:10 93% -
Mo, 23.09. 19:00 91% 13 km
Mo, 23.09. 18:30 90% 14 km
Mo, 23.09. 18:00 86% 15 km
Mo, 23.09. 17:30 84% 16 km
Mo, 23.09. 17:00 87% 15 km
Ortszeit Niederschlagsmenge Niederschlagsart
Mo, 23.09. 20:00 8 l/m2 in 12 Std. Regen
Mo, 23.09. 14:00 8 l/m2 in 6 Std. Regen
Mo, 23.09. 8:00 0.6 l/m2 in 12 Std. Regen
Mo, 23.09. 2:00 0.0 l/m2 in 6 Std. -
So, 22.09. 20:00 0.0 l/m2 in 12 Std. -
So, 22.09. 14:00 0.0 l/m2 in 6 Std. -
So, 22.09. 8:00 0.0 l/m2 in 12 Std. -
So, 22.09. 2:00 0.0 l/m2 in 6 Std. -
Ortszeit Niederschlagsmenge Niederschlagsart
Mo, 23.09. 20:00 0.0 l/m2 in 1 Std. Regen
Mo, 23.09. 19:50 keine Meldung -
Mo, 23.09. 19:40 keine Meldung -
Mo, 23.09. 19:30 0.0 l/m2 in 1 Std. -
Mo, 23.09. 19:20 keine Meldung -
Mo, 23.09. 19:10 keine Meldung -
Mo, 23.09. 19:00 0.1 l/m2 in 1 Std. Regen
Mo, 23.09. 18:30 0.1 l/m2 in 1 Std. Schneeregen
Mo, 23.09. 18:00 0.0 l/m2 in 1 Std. -
Mo, 23.09. 17:30 0.0 l/m2 in 1 Std. -
Mo, 23.09. 17:00 0.1 l/m2 in 1 Std. Regen
Ortszeit Stärke Spitze Richtung
km/h Bft. km/h Grad Sektor
Mo, 23.09. 20:00 6 1 15 130° SO
Mo, 23.09. 14:00 7 2 18 200° S
Mo, 23.09. 8:00 4 1 29 300° NW
Mo, 23.09. 2:00 11 2 18 140° SO
So, 22.09. 20:00 11 2 36 120° SO
So, 22.09. 14:00 25 4 32 130° SO
So, 22.09. 8:00 13 3 15 100° O
So, 22.09. 2:00 7 2 18 100° O
Ortszeit Stärke Spitze Richtung
km/h Bft. km/h Grad Sektor
Mo, 23.09. 20:00 6 1 7 130° SO
Mo, 23.09. 19:50 6 1 - 130° SO
Mo, 23.09. 19:40 7 2 - 140° SO
Mo, 23.09. 19:30 7 2 7 150° SO
Mo, 23.09. 19:20 7 2 - 150° SO
Mo, 23.09. 19:10 6 1 - 150° SO
Mo, 23.09. 19:00 6 1 9 150° SO
Mo, 23.09. 18:30 6 1 9 160° S
Mo, 23.09. 18:00 6 1 9 160° S
Mo, 23.09. 17:30 4 1 11 190° S
Mo, 23.09. 17:00 4 1 14 190° S
Ortszeit Untergrenze Bedeckung Gattung
total tief tief mittel hoch
Mo, 23.09. 20:00 1290 m 8/8 2/8 - - -
Mo, 23.09. 14:00 270 m 8/8 8/8 - - -
Mo, 23.09. 8:00 270 m 8/8 8/8 - - -
Mo, 23.09. 2:00 3600 m 8/8 8/8 - - -
So, 22.09. 20:00 7200 m 3/8 0/8 - - -
So, 22.09. 14:00 10500 m 6/8 0/8 - - -
So, 22.09. 8:00 - 0/8 0/8 - - -
So, 22.09. 2:00 - 0/8 0/8 - - -
Ortszeit Bedeckungsgrad in Achtel und Wolkenuntergrenze
Mo, 23.09. 20:00 2(1290m) 6(3300m) 8(3900m)
Mo, 23.09. 19:50 2(1290m) 6(3300m) 8(3900m)
Mo, 23.09. 19:40 2(1260m) 8(3300m)
Mo, 23.09. 19:30 1(1260m) 7(3300m) 8(3300m)
Mo, 23.09. 19:20 1(1260m) 2(2400m) 7(3300m)
Mo, 23.09. 19:10 2(2400m) 7(3300m) 8(3900m)
Mo, 23.09. 19:00 2(1800m) 4(2100m) 8(3000m)
Mo, 23.09. 18:30 2(540m) 7(1800m) 8(2100m)
Mo, 23.09. 18:00 3(480m) 8(2100m) 8(3000m)
Mo, 23.09. 17:30 1(600m) 8(3000m) 8(4200m)
Mo, 23.09. 17:00 1(1320m) 8(3000m) 8(3900m)
Ortszeit Luftdruck NN (hPa) Tendenz (hPa in 3 Std.)
Mo, 23.09. 20:00 1014 + 0,4
Mo, 23.09. 14:00 1014 + 0,3
Mo, 23.09. 8:00 1012 + 1,9
Mo, 23.09. 2:00 1009 + 0,6
So, 22.09. 20:00 1008 0,0
So, 22.09. 14:00 1009 - 1,8
So, 22.09. 8:00 1012 - 1,5
So, 22.09. 2:00 1015 - 1,3
Ortszeit Luftdruck NN (hPa) Tendenz (hPa in 3 Std.)
Mo, 23.09. 20:00 1014 + 0,4
Mo, 23.09. 19:50 1014 keine Meldung
Mo, 23.09. 19:40 1014 keine Meldung
Mo, 23.09. 19:30 1014 + 0,3
Mo, 23.09. 19:20 1014 keine Meldung
Mo, 23.09. 19:10 1014 keine Meldung
Mo, 23.09. 19:00 1014 + 0,2
Mo, 23.09. 18:30 1014 + 0,2
Mo, 23.09. 18:00 1014 + 0,2
Mo, 23.09. 17:30 1014 + 0,2
Mo, 23.09. 17:00 1014 + 0,3
Ortszeit Schneehöhe (cm)
Mo, 23.09. 20:00 -
Mo, 23.09. 14:00 -
Mo, 23.09. 8:00 -
Mo, 23.09. 2:00 -
So, 22.09. 20:00 -
So, 22.09. 14:00 -
So, 22.09. 8:00 -
So, 22.09. 2:00 -
Ortszeit Schneehöhe (cm)
Mo, 23.09. 20:00 -
Mo, 23.09. 19:50 -
Mo, 23.09. 19:40 -
Mo, 23.09. 19:30 -
Mo, 23.09. 19:20 -
Mo, 23.09. 19:10 -
Mo, 23.09. 19:00 -
Mo, 23.09. 18:30 -
Mo, 23.09. 18:00 -
Mo, 23.09. 17:30 -
Mo, 23.09. 17:00 -
Link zu dieser Seite / Seite empfehlen

Das Wetter in ...